Time;durP1;ratioP1;P1;durP2;ratioP2;P2;SDS_P1;SDS_P2;PMS_P1;PMS_P2;Temp;Humidity;BMP_temperature;BMP_pressure;BME280_temperature;BME280_humidity;BME280_pressure;Samples;Min_cycle;Max_cycle;Signal;HPM_P1;HPM_P2
2022/11/21 00:00:13;;;;;;;1.10;0.90;;;5.70;99.90;;;;;;6130969;23;20218;-76
2022/11/21 00:02:40;;;;;;;0.80;0.70;;;5.80;99.90;;;;;;6125546;23;20266;-76
2022/11/21 00:05:07;;;;;;;0.90;0.70;;;5.80;99.90;;;;;;6117733;23;20232;-76
2022/11/21 00:07:36;;;;;;;1.52;0.70;;;5.80;99.90;;;;;;6132672;23;20191;-76
2022/11/21 00:10:05;;;;;;;1.27;0.80;;;5.80;99.90;;;;;;6144398;23;20179;-76
2022/11/21 00:12:32;;;;;;;1.00;0.90;;;5.90;99.90;;;;;;6145290;23;20207;-76
2022/11/21 00:14:59;;;;;;;1.17;0.80;;;5.90;99.90;;;;;;6143539;23;20192;-76
2022/11/21 00:17:27;;;;;;;1.02;0.70;;;5.90;99.90;;;;;;6134526;23;20215;-76
2022/11/21 00:19:54;;;;;;;1.10;0.80;;;5.90;99.90;;;;;;6137543;23;20194;-75
2022/11/21 00:22:21;;;;;;;0.98;0.65;;;5.90;99.90;;;;;;6103803;23;20191;-75
2022/11/21 00:24:48;;;;;;;1.65;1.00;;;5.90;99.90;;;;;;6148192;23;20290;-76
2022/11/21 00:27:17;;;;;;;0.90;0.70;;;5.90;99.90;;;;;;6124988;23;20605;-76
2022/11/21 00:29:44;;;;;;;1.00;0.63;;;5.90;99.90;;;;;;6146710;23;20202;-76
2022/11/21 00:32:11;;;;;;;1.40;0.90;;;5.90;99.90;;;;;;6147242;23;20207;-75
2022/11/21 00:34:39;;;;;;;2.58;1.10;;;5.90;99.90;;;;;;6114007;23;20635;-76
2022/11/21 00:37:07;;;;;;;0.70;0.65;;;5.80;99.90;;;;;;6140681;23;20214;-76
2022/11/21 00:39:35;;;;;;;0.65;0.60;;;5.80;99.90;;;;;;6146218;23;20316;-76
2022/11/21 00:42:02;;;;;;;1.27;0.70;;;5.70;99.90;;;;;;6118523;23;20187;-76
2022/11/21 00:44:30;;;;;;;0.90;0.90;;;5.70;99.90;;;;;;6134986;23;20187;-76
2022/11/21 00:46:57;;;;;;;1.10;0.90;;;5.60;99.90;;;;;;6134875;23;20589;-76
2022/11/21 00:49:25;;;;;;;1.00;0.85;;;5.60;99.90;;;;;;6136603;23;20197;-76
2022/11/21 00:51:53;;;;;;;1.08;0.77;;;5.60;99.90;;;;;;6141091;23;20214;-76
2022/11/21 00:54:20;;;;;;;2.25;0.82;;;5.50;99.90;;;;;;6140159;23;20226;-76
2022/11/21 00:56:47;;;;;;;1.73;0.80;;;5.50;99.90;;;;;;6145482;23;20217;-76
2022/11/21 00:59:16;;;;;;;1.13;0.70;;;5.40;99.90;;;;;;6135200;23;20195;-76
2022/11/21 01:01:44;;;;;;;1.45;0.60;;;5.40;99.90;;;;;;6146138;23;20190;-76
2022/11/21 01:04:11;;;;;;;1.05;0.50;;;5.50;99.90;;;;;;6137366;23;20196;-76
2022/11/21 01:06:38;;;;;;;0.90;0.60;;;5.50;99.90;;;;;;6145924;23;20766;-76
2022/11/21 01:09:05;;;;;;;1.60;0.80;;;5.50;99.90;;;;;;6142784;23;20186;-76
2022/11/21 01:11:33;;;;;;;1.17;0.80;;;5.50;99.90;;;;;;6153064;23;20186;-76
2022/11/21 01:14:00;;;;;;;0.80;0.70;;;5.50;99.90;;;;;;6144770;23;20190;-76
2022/11/21 01:16:28;;;;;;;0.85;0.70;;;5.50;99.90;;;;;;6146201;23;20193;-76
2022/11/21 01:18:57;;;;;;;1.08;0.68;;;5.40;99.90;;;;;;6149459;23;20218;-76
2022/11/21 01:21:27;;;;;;;0.80;0.60;;;5.40;99.90;;;;;;6140673;23;20274;-76
2022/11/21 01:23:55;;;;;;;0.98;0.70;;;5.40;99.90;;;;;;6141830;23;20226;-76
2022/11/21 01:26:23;;;;;;;0.70;0.50;;;5.50;99.90;;;;;;6147118;23;20230;-76
2022/11/21 01:28:51;;;;;;;0.80;0.60;;;5.50;99.90;;;;;;6143862;23;20187;-76
2022/11/21 01:31:20;;;;;;;2.20;1.00;;;5.40;99.90;;;;;;6129898;23;20258;-75
2022/11/21 01:33:47;;;;;;;3.67;1.00;;;5.40;99.90;;;;;;6141501;23;20691;-75
2022/11/21 01:36:18;;;;;;;3.05;0.88;;;5.40;99.90;;;;;;6126242;23;20233;-75
2022/11/21 01:38:46;;;;;;;1.90;0.90;;;5.30;99.90;;;;;;6137728;23;20269;-75
2022/11/21 01:41:16;;;;;;;1.75;0.73;;;5.30;99.90;;;;;;6136725;23;20187;-75
2022/11/21 01:43:43;;;;;;;1.00;0.90;;;5.20;99.90;;;;;;6143957;23;20236;-75
2022/11/21 01:46:13;;;;;;;2.72;0.80;;;5.20;99.90;;;;;;6144944;23;20206;-75
2022/11/21 01:48:49;;;;;;;1.80;0.80;;;5.10;99.90;;;;;;6148006;23;20633;-75
2022/11/21 01:51:24;;;;;;;1.65;0.90;;;5.10;99.90;;;;;;6119068;23;20211;-76
2022/11/21 01:53:59;;;;;;;1.13;0.75;;;5.00;99.90;;;;;;6141327;23;20368;-75
2022/11/21 01:56:29;;;;;;;0.93;0.80;;;5.00;99.90;;;;;;6135398;23;20648;-75
2022/11/21 01:59:01;;;;;;;4.63;1.33;;;5.00;99.90;;;;;;6144717;23;20190;-75
2022/11/21 02:01:29;;;;;;;2.55;0.90;;;4.90;99.90;;;;;;6142799;23;20194;-75
2022/11/21 02:03:57;;;;;;;2.33;1.05;;;4.90;99.90;;;;;;6145331;23;20187;-75
2022/11/21 02:06:28;;;;;;;1.30;0.80;;;4.90;99.90;;;;;;6145711;23;20232;-75
2022/11/21 02:08:56;;;;;;;4.35;0.95;;;4.90;99.90;;;;;;6143382;23;20709;-75
2022/11/21 02:11:30;;;;;;;4.45;1.00;;;5.00;99.90;;;;;;6138775;23;20190;-75
2022/11/21 02:13:57;;;;;;;1.00;0.80;;;5.00;99.90;;;;;;6146167;23;20206;-75
2022/11/21 02:16:26;;;;;;;2.05;1.00;;;4.90;99.90;;;;;;6149653;23;20254;-75
2022/11/21 02:18:53;;;;;;;5.80;2.40;;;4.90;99.90;;;;;;6122794;23;20213;-75
2022/11/21 02:21:29;;;;;;;2.17;1.05;;;4.90;99.90;;;;;;6110775;23;20202;-75
2022/11/21 02:24:01;;;;;;;2.58;0.90;;;5.00;99.90;;;;;;6133672;23;20266;-75
2022/11/21 02:26:31;;;;;;;1.85;0.98;;;5.00;99.90;;;;;;6144051;23;20221;-75
2022/11/21 02:28:58;;;;;;;1.58;1.10;;;4.90;99.90;;;;;;6143899;23;20219;-75
2022/11/21 02:31:26;;;;;;;1.52;0.90;;;5.00;99.90;;;;;;6133368;23;20222;-75
2022/11/21 02:33:54;;;;;;;1.25;0.95;;;5.00;99.90;;;;;;6126387;23;20205;-75
2022/11/21 02:36:42;;;;;;;2.45;0.82;;;5.00;99.90;;;;;;6113523;23;20704;-75
2022/11/21 02:39:15;;;;;;;1.77;1.10;;;5.00;99.90;;;;;;6130955;23;20262;-75
2022/11/21 02:41:57;;;;;;;2.33;0.80;;;5.00;99.90;;;;;;6140916;23;20186;-75
2022/11/21 02:44:28;;;;;;;2.10;1.02;;;5.00;99.90;;;;;;6139029;23;20179;-75
2022/11/21 02:46:58;;;;;;;2.92;1.00;;;4.90;99.90;;;;;;6133314;23;20266;-75
2022/11/21 02:49:34;;;;;;;0.90;0.60;;;4.90;99.90;;;;;;6126249;23;20616;-75
2022/11/21 02:52:01;;;;;;;2.50;1.15;;;4.90;99.90;;;;;;6128884;23;20632;-75
2022/11/21 02:54:29;;;;;;;1.90;0.60;;;4.90;99.90;;;;;;6139207;23;20226;-75
2022/11/21 02:56:58;;;;;;;1.02;0.70;;;4.90;99.90;;;;;;6139095;23;20222;-75
2022/11/21 02:59:25;;;;;;;1.08;0.60;;;4.80;99.90;;;;;;6134683;23;20548;-75
2022/11/21 03:01:52;;;;;;;1.73;1.00;;;4.90;99.90;;;;;;6135181;23;20713;-75
2022/11/21 03:04:19;;;;;;;1.38;0.70;;;4.80;99.90;;;;;;6138377;23;20183;-75
2022/11/21 03:06:46;;;;;;;1.88;0.68;;;4.80;99.90;;;;;;6143008;23;20273;-75
2022/11/21 03:09:14;;;;;;;0.82;0.60;;;4.80;99.90;;;;;;6130603;23;20214;-75
2022/11/21 03:11:41;;;;;;;0.80;0.65;;;4.80;99.90;;;;;;6137196;23;20458;-75
2022/11/21 03:14:10;;;;;;;1.33;0.60;;;4.80;99.90;;;;;;6142696;23;20219;-75
2022/11/21 03:16:37;;;;;;;1.10;0.70;;;4.80;99.90;;;;;;6141090;23;20302;-75
2022/11/21 03:19:04;;;;;;;1.25;0.70;;;4.70;99.90;;;;;;6127947;23;20222;-75
2022/11/21 03:21:33;;;;;;;0.60;0.50;;;4.70;99.90;;;;;;6141273;23;20222;-75
2022/11/21 03:24:00;;;;;;;0.60;0.60;;;4.70;99.90;;;;;;6147425;23;20558;-75
2022/11/21 03:26:27;;;;;;;0.70;0.57;;;4.70;99.90;;;;;;6134587;23;20337;-75
2022/11/21 03:28:54;;;;;;;2.25;0.60;;;4.70;99.90;;;;;;6128973;23;20617;-75
2022/11/21 03:31:23;;;;;;;0.70;0.50;;;4.70;99.90;;;;;;6140322;23;20565;-75
2022/11/21 03:33:51;;;;;;;1.95;0.60;;;4.80;99.90;;;;;;6130526;23;20301;-75
2022/11/21 03:36:18;;;;;;;1.63;0.60;;;4.80;99.90;;;;;;6110484;23;20294;-75
2022/11/21 03:38:45;;;;;;;1.13;0.70;;;4.80;99.90;;;;;;6133320;23;20281;-75
2022/11/21 03:43:53;;;;;;;2.55;0.98;;;4.80;99.90;;;;;;6137291;23;20660;-76
2022/11/21 03:46:20;;;;;;;1.15;0.60;;;4.90;99.90;;;;;;6142592;23;20190;-75
2022/11/21 03:48:49;;;;;;;0.90;0.60;;;4.90;99.90;;;;;;6121796;23;20494;-76
2022/11/21 03:51:16;;;;;;;0.95;0.70;;;4.90;99.90;;;;;;6113028;23;20230;-75
2022/11/21 03:53:43;;;;;;;0.70;0.60;;;5.00;99.90;;;;;;6123689;23;20746;-75
2022/11/21 03:56:11;;;;;;;0.75;0.70;;;5.00;99.90;;;;;;6140710;23;20677;-75
2022/11/21 03:58:38;;;;;;;1.08;0.73;;;5.00;99.90;;;;;;6141545;23;20297;-75
2022/11/21 04:01:05;;;;;;;1.35;0.82;;;5.00;99.90;;;;;;6146759;23;20251;-76
2022/11/21 04:03:33;;;;;;;0.77;0.68;;;5.10;99.90;;;;;;6124638;23;20191;-75
2022/11/21 04:06:02;;;;;;;1.00;0.82;;;5.10;99.90;;;;;;6148770;23;20614;-75
2022/11/21 04:08:29;;;;;;;0.95;0.60;;;5.10;99.90;;;;;;6130041;23;20283;-76
2022/11/21 04:10:56;;;;;;;0.93;0.70;;;5.20;99.90;;;;;;6141187;23;20263;-75
2022/11/21 04:13:24;;;;;;;0.70;0.60;;;5.20;99.90;;;;;;6124391;23;20310;-76
2022/11/21 04:15:52;;;;;;;1.55;0.68;;;5.20;99.90;;;;;;6121697;23;20282;-75
2022/11/21 04:18:19;;;;;;;1.40;0.52;;;5.20;99.90;;;;;;6111317;23;20195;-76
2022/11/21 04:20:46;;;;;;;1.35;0.95;;;5.20;99.90;;;;;;6121670;23;20187;-76
2022/11/21 04:23:15;;;;;;;0.85;0.57;;;5.30;99.90;;;;;;6129306;23;20274;-76
2022/11/21 04:25:42;;;;;;;2.55;0.60;;;5.20;99.90;;;;;;6138391;23;20266;-76
2022/11/21 04:28:13;;;;;;;1.05;0.60;;;5.30;99.90;;;;;;6134095;23;20213;-76
2022/11/21 04:30:40;;;;;;;1.05;0.70;;;5.30;99.90;;;;;;6144517;23;20205;-76
2022/11/21 04:33:08;;;;;;;0.70;0.63;;;5.40;99.90;;;;;;6137086;23;20237;-76
2022/11/21 04:35:35;;;;;;;1.25;0.60;;;5.40;99.90;;;;;;6146440;23;20213;-76
2022/11/21 04:38:02;;;;;;;0.73;0.60;;;5.40;99.90;;;;;;6141979;23;20268;-76
2022/11/21 04:40:31;;;;;;;1.42;0.65;;;5.40;99.90;;;;;;6144453;23;20194;-75
2022/11/21 04:42:58;;;;;;;0.88;0.70;;;5.40;99.90;;;;;;6146630;23;20191;-76
2022/11/21 04:45:25;;;;;;;0.85;0.70;;;5.40;99.90;;;;;;6131736;23;20207;-75
2022/11/21 04:47:54;;;;;;;1.45;0.80;;;5.40;99.90;;;;;;6125536;23;20264;-76
2022/11/21 04:50:22;;;;;;;1.45;0.70;;;5.40;99.90;;;;;;6144699;23;20277;-77
2022/11/21 04:52:50;;;;;;;0.90;0.70;;;5.50;99.90;;;;;;6145566;23;20215;-76
2022/11/21 04:55:17;;;;;;;1.02;0.82;;;5.40;99.90;;;;;;6099947;23;20189;-76
2022/11/21 04:57:46;;;;;;;1.83;0.93;;;5.50;99.90;;;;;;6135731;23;20191;-77
2022/11/21 05:00:15;;;;;;;1.23;0.70;;;5.50;99.90;;;;;;6144169;23;20198;-77
2022/11/21 05:02:42;;;;;;;1.85;0.80;;;5.60;99.90;;;;;;6111218;23;20321;-77
2022/11/21 05:05:10;;;;;;;1.92;1.10;;;5.60;99.90;;;;;;6136139;23;20481;-76
2022/11/21 05:07:38;;;;;;;1.23;1.13;;;5.70;99.90;;;;;;6117376;23;20190;-77
2022/11/21 05:10:06;;;;;;;1.70;1.20;;;5.80;99.90;;;;;;6131569;23;20295;-76
2022/11/21 05:15:21;;;;;;;2.17;1.50;;;5.80;99.90;;;;;;6145530;23;20183;-78
2022/11/21 05:17:48;;;;;;;1.55;1.45;;;5.90;99.90;;;;;;6133407;23;20217;-76
2022/11/21 05:20:17;;;;;;;2.55;1.60;;;5.90;99.90;;;;;;6126822;23;20203;-75
2022/11/21 05:22:48;;;;;;;3.60;1.83;;;6.00;99.90;;;;;;6136409;23;20194;-76
2022/11/21 05:25:16;;;;;;;2.25;1.20;;;6.00;99.90;;;;;;6136409;23;20193;-76
2022/11/21 05:27:43;;;;;;;2.10;1.73;;;6.10;99.90;;;;;;6141115;23;20610;-76
2022/11/21 05:30:13;;;;;;;3.72;1.80;;;6.10;99.90;;;;;;6125071;23;20708;-76
2022/11/21 05:32:43;;;;;;;2.72;1.70;;;6.20;99.90;;;;;;6132950;23;20244;-76
2022/11/21 05:35:10;;;;;;;3.33;2.00;;;6.40;99.90;;;;;;6133995;23;20629;-77
2022/11/21 05:37:37;;;;;;;3.45;1.80;;;6.30;99.90;;;;;;6141421;23;20193;-77
2022/11/21 05:40:06;;;;;;;4.07;2.05;;;6.30;99.90;;;;;;6144282;23;20533;-76
2022/11/21 05:45:17;;;;;;;3.60;1.67;;;6.40;99.90;;;;;;6146688;23;20216;-77
2022/11/21 05:47:45;;;;;;;3.35;1.60;;;6.50;99.90;;;;;;6117738;23;20231;-77
2022/11/21 05:50:13;;;;;;;3.78;1.70;;;6.50;99.90;;;;;;6129640;23;20618;-78
2022/11/21 05:52:40;;;;;;;3.35;2.05;;;6.50;99.90;;;;;;6117899;23;20639;-76
2022/11/21 05:55:08;;;;;;;8.18;1.92;;;6.50;99.90;;;;;;6140705;23;20286;-76
2022/11/21 05:57:35;;;;;;;2.90;1.85;;;6.50;99.90;;;;;;6149014;23;20195;-75
2022/11/21 06:00:03;;;;;;;4.22;1.65;;;6.50;99.90;;;;;;6103145;23;20276;-76
2022/11/21 06:05:17;;;;;;;2.85;1.85;;;6.50;99.90;;;;;;6133751;23;20258;-76
2022/11/21 06:07:44;;;;;;;3.90;1.60;;;6.50;99.90;;;;;;6139986;23;20183;-75
2022/11/21 06:10:11;;;;;;;3.15;1.65;;;6.40;99.90;;;;;;6126253;23;20195;-76
2022/11/21 06:12:38;;;;;;;4.15;1.83;;;6.40;99.90;;;;;;6151648;23;20175;-76
2022/11/21 06:15:07;;;;;;;2.50;1.70;;;6.30;99.90;;;;;;6145608;23;20238;-76
2022/11/21 06:17:34;;;;;;;2.65;1.67;;;6.30;99.90;;;;;;6142006;23;20560;-76
2022/11/21 06:20:02;;;;;;;4.65;1.90;;;6.30;99.90;;;;;;6139247;23;20182;-76
2022/11/21 06:22:30;;;;;;;1.98;1.35;;;6.20;99.90;;;;;;6123134;23;20266;-76
2022/11/21 06:24:58;;;;;;;2.38;1.77;;;6.20;99.90;;;;;;6133384;23;20184;-76
2022/11/21 06:27:25;;;;;;;4.07;1.50;;;6.20;99.90;;;;;;6131063;23;20194;-76
2022/11/21 06:29:52;;;;;;;2.60;1.50;;;6.20;99.90;;;;;;6127690;23;20237;-76
2022/11/21 06:32:20;;;;;;;4.32;1.70;;;6.20;99.90;;;;;;6137074;23;20198;-76
2022/11/21 06:34:47;;;;;;;3.70;1.55;;;6.20;99.90;;;;;;6110084;23;20294;-75
2022/11/21 06:37:14;;;;;;;3.45;1.40;;;6.20;99.90;;;;;;6134932;23;20195;-76
2022/11/21 06:39:43;;;;;;;2.55;1.50;;;6.20;99.90;;;;;;6137237;23;20299;-76
2022/11/21 06:42:10;;;;;;;3.40;1.60;;;6.20;99.90;;;;;;6137015;23;20190;-76
2022/11/21 06:44:37;;;;;;;4.18;1.55;;;6.20;99.90;;;;;;6108495;23;20649;-76
2022/11/21 06:47:05;;;;;;;2.85;1.50;;;6.20;99.90;;;;;;6141065;23;20265;-76
2022/11/21 06:49:32;;;;;;;2.45;1.60;;;6.20;99.90;;;;;;6127780;23;20195;-76
2022/11/21 06:52:00;;;;;;;3.92;1.60;;;6.20;99.90;;;;;;6136960;23;20191;-75
2022/11/21 06:54:27;;;;;;;7.40;1.90;;;6.20;99.90;;;;;;6132119;23;20226;-76
2022/11/21 06:56:57;;;;;;;2.63;1.42;;;6.20;99.90;;;;;;6133355;23;20307;-76
2022/11/21 06:59:24;;;;;;;3.40;1.67;;;6.20;99.90;;;;;;6132787;23;20245;-76
2022/11/21 07:01:51;;;;;;;3.97;1.92;;;6.20;99.90;;;;;;6107322;23;20274;-76
2022/11/21 07:04:20;;;;;;;6.15;1.98;;;6.20;99.90;;;;;;6141767;23;20244;-76
2022/11/21 07:06:47;;;;;;;2.72;1.55;;;6.20;99.90;;;;;;6137421;23;20562;-76
2022/11/21 07:09:14;;;;;;;3.22;1.60;;;6.10;99.90;;;;;;6148229;23;20217;-80
2022/11/21 07:11:42;;;;;;;2.53;1.58;;;6.10;99.90;;;;;;6148631;23;20272;-82
2022/11/21 07:14:09;;;;;;;2.42;1.50;;;6.10;99.90;;;;;;6143312;23;20218;-81
2022/11/21 07:16:37;;;;;;;6.32;1.80;;;6.10;99.90;;;;;;6136469;23;20183;-76
2022/11/21 07:19:04;;;;;;;3.47;1.50;;;6.10;99.90;;;;;;6134559;23;20186;-77
2022/11/21 07:21:32;;;;;;;3.67;1.38;;;6.10;99.90;;;;;;6139041;23;20511;-76
2022/11/21 07:23:59;;;;;;;1.98;1.30;;;6.10;99.90;;;;;;6150741;23;20198;-76
2022/11/21 07:26:26;;;;;;;4.10;1.50;;;6.20;99.90;;;;;;6144718;23;20187;-76
2022/11/21 07:28:53;;;;;;;2.97;1.20;;;6.20;99.90;;;;;;6137006;23;20610;-76
2022/11/21 07:31:22;;;;;;;2.05;1.70;;;6.30;99.90;;;;;;6140625;23;20194;-76
2022/11/21 07:33:49;;;;;;;4.38;1.50;;;6.30;99.90;;;;;;6136709;23;20217;-77
2022/11/21 07:36:16;;;;;;;1.50;1.30;;;6.40;99.90;;;;;;6110086;23;20242;-77
2022/11/21 07:38:46;;;;;;;1.70;1.50;;;6.40;99.90;;;;;;6139325;23;20219;-76
2022/11/21 07:41:13;;;;;;;4.45;1.42;;;6.40;99.90;;;;;;6108196;23;20183;-77
2022/11/21 07:43:40;;;;;;;4.75;1.80;;;6.50;99.90;;;;;;6096194;23;20305;-73
2022/11/21 07:46:07;;;;;;;2.40;1.42;;;6.50;99.90;;;;;;6127383;23;20187;-76
2022/11/21 07:48:36;;;;;;;2.00;1.50;;;6.60;99.90;;;;;;6129363;23;20270;-73
2022/11/21 07:51:05;;;;;;;5.20;2.00;;;6.60;99.90;;;;;;6141695;23;20197;-75
2022/11/21 07:53:32;;;;;;;2.03;1.40;;;6.70;99.90;;;;;;6128455;23;20291;-75
2022/11/21 07:55:59;;;;;;;7.35;2.13;;;6.70;99.90;;;;;;6126892;23;20270;-75
2022/11/21 07:58:27;;;;;;;2.55;1.80;;;6.80;99.90;;;;;;6128785;23;20244;-75
2022/11/21 08:00:54;;;;;;;3.33;1.50;;;6.80;99.90;;;;;;6137206;23;20300;-75
2022/11/21 08:03:24;;;;;;;3.75;1.98;;;6.90;99.90;;;;;;6139748;23;20215;-75
2022/11/21 08:05:52;;;;;;;2.95;1.83;;;7.10;99.90;;;;;;6128758;23;20546;-75
2022/11/21 08:08:19;;;;;;;3.05;1.75;;;7.10;99.90;;;;;;6131831;23;20269;-75
2022/11/21 08:10:46;;;;;;;4.68;1.80;;;7.10;99.90;;;;;;6126808;23;20188;-75
2022/11/21 08:13:14;;;;;;;2.35;1.90;;;7.10;99.90;;;;;;6104188;23;20649;-75
2022/11/21 08:15:41;;;;;;;7.68;1.58;;;7.20;99.90;;;;;;6129398;23;20215;-75
2022/11/21 08:18:10;;;;;;;2.95;1.33;;;7.40;99.90;;;;;;6133184;23;20560;-75
2022/11/21 08:20:37;;;;;;;2.25;1.42;;;7.70;99.90;;;;;;6123730;23;20576;-75
2022/11/21 08:23:06;;;;;;;4.70;1.95;;;8.00;99.90;;;;;;6129176;23;20188;-76
2022/11/21 08:25:34;;;;;;;2.88;1.30;;;8.10;99.90;;;;;;6129947;23;20216;-76
2022/11/21 08:28:02;;;;;;;3.78;1.38;;;8.00;99.90;;;;;;6117310;23;20187;-75
2022/11/21 08:30:29;;;;;;;3.72;1.85;;;8.00;99.90;;;;;;6112710;23;20259;-75
2022/11/21 08:32:58;;;;;;;2.40;1.55;;;7.90;99.90;;;;;;6143014;23;20267;-75
2022/11/21 08:35:25;;;;;;;7.90;2.03;;;8.10;99.90;;;;;;6137566;23;20732;-75
2022/11/21 08:37:57;;;;;;;4.35;1.70;;;8.40;99.90;;;;;;6144454;23;20194;-75
2022/11/21 08:40:26;;;;;;;2.60;1.40;;;8.60;99.90;;;;;;6150067;23;20197;-75
2022/11/21 08:42:57;;;;;;;4.53;1.30;;;8.70;99.90;;;;;;6132658;23;20249;-75
2022/11/21 08:45:24;;;;;;;3.08;1.60;;;8.90;99.90;;;;;;6140004;23;20224;-75
2022/11/21 08:47:52;;;;;;;3.80;1.45;;;9.20;99.90;;;;;;6134224;23;20198;-74
2022/11/21 08:50:19;;;;;;;3.17;1.20;;;9.50;99.90;;;;;;6136259;23;20186;-74
2022/11/21 08:52:46;;;;;;;2.97;1.15;;;9.70;99.90;;;;;;6137098;23;20225;-75
2022/11/21 08:55:13;;;;;;;5.63;1.40;;;10.00;99.90;;;;;;6133266;23;20240;-75
2022/11/21 08:57:42;;;;;;;3.33;1.70;;;10.30;99.90;;;;;;6138568;23;20450;-75
2022/11/21 09:00:12;;;;;;;3.17;1.50;;;10.50;99.90;;;;;;6135798;23;20259;-75
2022/11/21 09:02:40;;;;;;;2.63;1.33;;;10.60;99.90;;;;;;6131402;23;20278;-75
2022/11/21 09:05:08;;;;;;;2.90;1.20;;;10.70;99.90;;;;;;6130800;23;20628;-75
2022/11/21 09:07:36;;;;;;;1.90;1.33;;;10.60;99.90;;;;;;6139390;23;20187;-74
2022/11/21 09:10:03;;;;;;;6.43;1.60;;;10.20;99.90;;;;;;6139577;23;20190;-75
2022/11/21 09:12:31;;;;;;;3.78;1.40;;;9.90;99.90;;;;;;6136719;23;20193;-74
2022/11/21 09:20:29;;;;;;;3.40;1.40;;;9.10;99.90;;;;;;6132851;23;20192;-75
2022/11/21 09:22:56;;;;;;;3.30;1.45;;;8.90;99.90;;;;;;6125041;23;20367;-75
2022/11/21 09:25:23;;;;;;;2.53;1.40;;;8.70;99.90;;;;;;6130297;23;20268;-75
2022/11/21 09:27:51;;;;;;;3.45;1.40;;;8.70;99.90;;;;;;6129570;23;20196;-75
2022/11/21 09:30:19;;;;;;;3.63;1.67;;;8.70;99.90;;;;;;6129673;23;20264;-75
2022/11/21 09:32:46;;;;;;;5.28;1.42;;;8.70;99.90;;;;;;6127709;23;20686;-75
2022/11/21 09:35:14;;;;;;;3.15;1.30;;;8.70;99.90;;;;;;6122300;23;20654;-75
2022/11/21 09:37:42;;;;;;;4.28;1.45;;;8.60;99.90;;;;;;6131781;23;20232;-75
2022/11/21 09:40:14;;;;;;;4.68;1.88;;;8.60;99.90;;;;;;6128079;23;20297;-75
2022/11/21 09:43:15;;;;;;;3.95;1.33;;;8.60;99.90;;;;;;6131043;23;20187;-81
2022/11/21 09:45:48;;;;;;;6.68;1.55;;;8.50;99.90;;;;;;6125918;23;20201;-76
2022/11/21 09:48:21;;;;;;;6.05;1.75;;;8.40;99.90;;;;;;6147160;23;20715;-75
2022/11/21 09:50:53;;;;;;;2.90;1.70;;;8.40;99.90;;;;;;6140960;23;20196;-75
2022/11/21 09:53:25;;;;;;;2.92;1.85;;;8.40;99.90;;;;;;6135426;23;20204;-76
2022/11/21 09:55:55;;;;;;;3.20;1.55;;;8.40;99.90;;;;;;6127059;23;20751;-76
2022/11/21 09:58:29;;;;;;;5.78;1.60;;;8.40;99.90;;;;;;6145635;23;20577;-75
2022/11/21 10:00:59;;;;;;;4.03;1.42;;;8.50;99.90;;;;;;6133147;23;20190;-75
2022/11/21 10:03:30;;;;;;;4.70;1.60;;;8.50;99.90;;;;;;6133157;23;20191;-75
2022/11/21 10:06:01;;;;;;;3.30;1.50;;;8.50;99.90;;;;;;6133372;23;20220;-77
2022/11/21 10:08:37;;;;;;;4.80;1.15;;;8.50;99.90;;;;;;6139670;23;20195;-75
2022/11/21 10:11:18;;;;;;;2.78;1.48;;;8.50;99.90;;;;;;6134221;23;20847;-75
2022/11/21 10:13:54;;;;;;;3.53;1.55;;;8.60;99.90;;;;;;6130745;23;20190;-76
2022/11/21 10:16:33;;;;;;;2.80;1.73;;;8.80;99.90;;;;;;6143143;23;20252;-75
2022/11/21 10:19:25;;;;;;;5.05;1.63;;;8.90;99.90;;;;;;6096374;23;20498;-76
2022/11/21 10:22:23;;;;;;;3.60;1.50;;;9.30;99.90;;;;;;6133644;23;20551;-75
2022/11/21 10:24:56;;;;;;;3.15;1.42;;;9.30;99.90;;;;;;6135646;23;20190;-76
2022/11/21 10:27:31;;;;;;;8.77;2.17;;;9.30;99.90;;;;;;6144082;23;20654;-75
2022/11/21 10:30:03;;;;;;;1.67;1.20;;;9.30;99.90;;;;;;6111148;23;20279;-75
2022/11/21 10:32:38;;;;;;;3.65;1.20;;;9.20;99.90;;;;;;6147916;23;20186;-75
2022/11/21 10:35:15;;;;;;;3.60;1.30;;;9.20;99.90;;;;;;6138642;23;20615;-76
2022/11/21 10:37:48;;;;;;;3.38;1.40;;;9.30;99.90;;;;;;6140271;23;20230;-76
2022/11/21 10:40:23;;;;;;;2.95;1.50;;;9.50;99.90;;;;;;6108791;23;20190;-76
2022/11/21 10:42:55;;;;;;;2.65;1.38;;;9.80;99.90;;;;;;6138427;23;20214;-75
2022/11/21 10:45:22;;;;;;;3.63;1.55;;;10.10;99.90;;;;;;6140401;23;20626;-76
2022/11/21 10:47:52;;;;;;;3.83;1.33;;;10.30;99.90;;;;;;6109712;23;20240;-76
2022/11/21 10:50:33;;;;;;;3.42;1.55;;;10.40;99.90;;;;;;6118673;23;20194;-75
2022/11/21 10:56:01;;;;;;;2.60;1.10;;;10.00;99.90;;;;;;6125567;23;20545;-75
2022/11/21 10:58:44;;;;;;;4.22;1.77;;;9.50;99.90;;;;;;6110741;23;21428;-76
2022/11/21 11:01:19;;;;;;;4.68;2.30;;;8.90;99.90;;;;;;6132756;23;20201;-76
2022/11/21 11:04:06;;;;;;;3.90;1.70;;;8.60;99.90;;;;;;6124930;23;20791;-76
2022/11/21 11:06:33;;;;;;;2.97;1.50;;;8.30;99.90;;;;;;6137189;23;20185;-77
2022/11/21 11:09:01;;;;;;;2.90;1.88;;;8.20;99.90;;;;;;6129569;23;20281;-76
2022/11/21 11:11:28;;;;;;;3.60;1.83;;;8.10;99.90;;;;;;6145023;23;20280;-75
2022/11/21 11:13:58;;;;;;;2.15;1.70;;;8.10;99.90;;;;;;6134691;23;20913;-76
2022/11/21 11:16:27;;;;;;;3.72;2.00;;;8.10;99.90;;;;;;6142173;23;20284;-76
2022/11/21 11:19:00;;;;;;;3.17;2.47;;;8.10;99.90;;;;;;6132966;23;20255;-77
2022/11/21 11:21:29;;;;;;;2.63;2.42;;;8.20;99.90;;;;;;6135762;23;20185;-77
2022/11/21 11:24:19;;;;;;;2.03;1.67;;;8.70;99.90;;;;;;6142217;23;20707;-76
2022/11/21 11:26:53;;;;;;;3.13;2.33;;;9.20;99.90;;;;;;6094859;23;20218;-77
2022/11/21 11:29:22;;;;;;;3.38;1.73;;;9.60;99.90;;;;;;6140122;23;20205;-77
2022/11/21 11:31:55;;;;;;;2.90;1.70;;;9.90;99.90;;;;;;6139082;23;20613;-76
2022/11/21 11:34:25;;;;;;;3.03;1.60;;;10.10;99.90;;;;;;6134999;23;20615;-76
2022/11/21 11:36:57;;;;;;;2.20;1.30;;;10.20;99.90;;;;;;6143378;23;20293;-76
2022/11/21 11:39:38;;;;;;;3.45;1.48;;;10.40;99.90;;;;;;6121119;23;20518;-77
2022/11/21 11:48:50;;;;;;;2.75;1.55;;;10.40;99.90;;;;;;6090591;23;20219;-76
2022/11/21 11:51:24;;;;;;;2.67;1.60;;;10.30;99.90;;;;;;6116033;23;20195;-76
2022/11/21 11:53:58;;;;;;;2.30;1.70;;;10.20;99.90;;;;;;6139681;23;20229;-76
2022/11/21 11:56:31;;;;;;;1.90;1.40;;;10.20;99.90;;;;;;6142624;23;20215;-76
2022/11/21 11:59:05;;;;;;;5.07;2.45;;;10.10;99.90;;;;;;6134959;23;20326;-76
2022/11/21 12:01:38;;;;;;;2.05;1.80;;;10.10;99.90;;;;;;6132771;23;20190;-76
2022/11/21 12:04:11;;;;;;;3.05;1.83;;;10.10;99.90;;;;;;6112678;23;20603;-77
2022/11/21 12:06:46;;;;;;;3.28;2.42;;;10.00;99.90;;;;;;6122554;23;20191;-78
2022/11/21 12:09:23;;;;;;;2.42;1.75;;;9.90;99.90;;;;;;6137040;23;20194;-78
2022/11/21 12:12:06;;;;;;;2.05;1.50;;;9.80;99.90;;;;;;6117624;23;20190;-77
2022/11/21 12:17:44;;;;;;;1.63;1.52;;;10.90;99.90;;;;;;6055663;23;20191;-76
2022/11/21 12:20:17;;;;;;;3.17;1.40;;;11.70;99.90;;;;;;6139271;23;20190;-76
2022/11/21 12:22:48;;;;;;;3.67;1.53;;;12.50;99.90;;;;;;6133442;23;21080;-76
2022/11/21 12:25:16;;;;;;;2.37;1.97;;;13.10;99.90;;;;;;6129541;23;20520;-76
2022/11/21 12:27:48;;;;;;;2.73;1.60;;;13.60;99.90;;;;;;6139354;23;20521;-76
2022/11/21 12:30:48;;;;;;;3.03;2.00;;;13.90;99.90;;;;;;6133590;23;20444;-77
2022/11/21 12:33:20;;;;;;;2.53;1.60;;;14.00;99.90;;;;;;6104493;23;20443;-78
2022/11/21 12:36:19;;;;;;;1.93;1.10;;;13.40;99.90;;;;;;6145323;23;21061;-76
2022/11/21 12:39:22;;;;;;;2.60;1.20;;;12.90;99.90;;;;;;6131071;23;21137;-77
2022/11/21 12:44:57;;;;;;;2.30;1.73;;;12.10;99.90;;;;;;6132264;23;20237;-77
2022/11/21 12:56:15;;;;;;;2.42;1.40;;;11.80;99.90;;;;;;6110117;23;20293;-77
2022/11/21 12:58:49;;;;;;;3.53;1.50;;;12.00;99.90;;;;;;6129591;23;20190;-77
2022/11/21 13:01:22;;;;;;;3.73;1.60;;;12.20;99.90;;;;;;6134593;23;20532;-77
2022/11/21 13:03:57;;;;;;;2.50;1.20;;;12.40;99.90;;;;;;6108342;23;20433;-77
2022/11/21 13:06:28;;;;;;;2.20;2.00;;;12.30;99.90;;;;;;6116197;23;20428;-77
2022/11/21 13:08:58;;;;;;;4.13;1.60;;;12.70;99.90;;;;;;6115375;23;20704;-76
2022/11/21 13:12:02;;;;;;;1.83;1.30;;;12.60;99.90;;;;;;6125851;23;20498;-76
2022/11/21 13:14:37;;;;;;;1.23;0.90;;;12.80;99.90;;;;;;6132992;23;20515;-76
2022/11/21 13:17:16;;;;;;;2.53;1.20;;;12.90;99.90;;;;;;6132721;23;20481;-77
2022/11/21 13:19:50;;;;;;;4.00;1.30;;;12.80;99.90;;;;;;6126740;23;20439;-76
2022/11/21 13:22:49;;;;;;;4.77;1.40;;;12.90;99.90;;;;;;6135329;23;20765;-76
2022/11/21 13:25:45;;;;;;;3.27;1.40;;;13.10;99.90;;;;;;6033173;23;20521;-76
2022/11/21 13:28:47;;;;;;;1.90;1.40;;;13.20;99.90;;;;;;6125011;23;20442;-75
2022/11/21 13:31:29;;;;;;;4.50;1.17;;;13.20;99.90;;;;;;6134810;23;20917;-76
2022/11/21 13:33:57;;;;;;;2.97;1.43;;;13.30;99.90;;;;;;6141326;23;20448;-75
2022/11/21 13:36:40;;;;;;;2.83;1.30;;;13.30;99.90;;;;;;6142960;23;20450;-76
2022/11/21 13:39:27;;;;;;;3.00;1.10;;;13.00;99.90;;;;;;6140718;23;20423;-76
2022/11/21 13:44:59;;;;;;;5.07;1.77;;;12.80;99.90;;;;;;6130213;23;20183;-78
2022/11/21 13:47:47;;;;;;;2.15;1.23;;;12.50;99.90;;;;;;6130227;23;20182;-78
2022/11/21 13:50:23;;;;;;;1.73;1.10;;;12.20;99.90;;;;;;6124022;23;20191;-75
2022/11/21 13:53:01;;;;;;;2.40;1.60;;;12.00;99.90;;;;;;6112620;23;20725;-75
2022/11/21 13:55:44;;;;;;;4.28;1.48;;;11.80;99.90;;;;;;6125565;23;20256;-74